sensor_id;sensor_type;location;lat;lon;timestamp;P1;durP1;ratioP1;P2;durP2;ratioP2
21769;SDS011;11046;49.558;8.674;2022-09-09T00:19:16;2.35;;;1.30;;
21769;SDS011;11046;49.558;8.674;2022-09-09T00:22:19;9.90;;;1.55;;
21769;SDS011;11046;49.558;8.674;2022-09-09T00:25:29;3.63;;;1.70;;
21769;SDS011;11046;49.558;8.674;2022-09-09T00:28:53;2.90;;;1.90;;
21769;SDS011;11046;49.558;8.674;2022-09-09T00:32:18;7.63;;;2.30;;
21769;SDS011;11046;49.558;8.674;2022-09-09T00:38:28;5.60;;;1.88;;
21769;SDS011;11046;49.558;8.674;2022-09-09T00:41:41;8.80;;;3.10;;
21769;SDS011;11046;49.558;8.674;2022-09-09T00:45:02;7.25;;;2.05;;
21769;SDS011;11046;49.558;8.674;2022-09-09T00:48:18;4.97;;;1.77;;
21769;SDS011;11046;49.558;8.674;2022-09-09T00:57:44;6.07;;;1.48;;
21769;SDS011;11046;49.558;8.674;2022-09-09T01:00:49;7.50;;;1.63;;
21769;SDS011;11046;49.558;8.674;2022-09-09T01:04:04;7.13;;;1.65;;
21769;SDS011;11046;49.558;8.674;2022-09-09T01:07:21;7.18;;;2.25;;
21769;SDS011;11046;49.558;8.674;2022-09-09T01:10:29;4.63;;;1.52;;
21769;SDS011;11046;49.558;8.674;2022-09-09T01:13:47;5.63;;;1.70;;
21769;SDS011;11046;49.558;8.674;2022-09-09T01:17:02;5.38;;;1.55;;
21769;SDS011;11046;49.558;8.674;2022-09-09T01:20:10;6.25;;;1.60;;
21769;SDS011;11046;49.558;8.674;2022-09-09T01:26:58;4.97;;;1.30;;
21769;SDS011;11046;49.558;8.674;2022-09-09T01:30:05;4.30;;;1.60;;
21769;SDS011;11046;49.558;8.674;2022-09-09T01:33:14;6.45;;;1.65;;
21769;SDS011;11046;49.558;8.674;2022-09-09T01:36:19;6.15;;;1.55;;
21769;SDS011;11046;49.558;8.674;2022-09-09T01:39:41;7.05;;;1.50;;
21769;SDS011;11046;49.558;8.674;2022-09-09T01:42:47;4.78;;;1.30;;
21769;SDS011;11046;49.558;8.674;2022-09-09T01:45:48;5.75;;;1.65;;
21769;SDS011;11046;49.558;8.674;2022-09-09T01:48:53;6.82;;;1.65;;
21769;SDS011;11046;49.558;8.674;2022-09-09T01:51:55;12.50;;;2.70;;
21769;SDS011;11046;49.558;8.674;2022-09-09T01:55:08;3.63;;;1.70;;
21769;SDS011;11046;49.558;8.674;2022-09-09T02:08:20;4.95;;;1.60;;
21769;SDS011;11046;49.558;8.674;2022-09-09T02:11:34;3.45;;;1.27;;
21769;SDS011;11046;49.558;8.674;2022-09-09T02:15:00;10.30;;;1.70;;
21769;SDS011;11046;49.558;8.674;2022-09-09T02:18:15;6.63;;;1.63;;
21769;SDS011;11046;49.558;8.674;2022-09-09T02:21:23;6.25;;;1.77;;
21769;SDS011;11046;49.558;8.674;2022-09-09T02:24:25;4.85;;;1.45;;
21769;SDS011;11046;49.558;8.674;2022-09-09T02:27:39;6.07;;;1.73;;
21769;SDS011;11046;49.558;8.674;2022-09-09T02:30:43;4.78;;;1.50;;
21769;SDS011;11046;49.558;8.674;2022-09-09T02:33:51;3.97;;;1.35;;
21769;SDS011;11046;49.558;8.674;2022-09-09T02:36:58;4.68;;;1.75;;
21769;SDS011;11046;49.558;8.674;2022-09-09T02:40:02;4.93;;;1.52;;
21769;SDS011;11046;49.558;8.674;2022-09-09T02:43:06;4.05;;;1.58;;
21769;SDS011;11046;49.558;8.674;2022-09-09T02:46:53;8.88;;;1.67;;
21769;SDS011;11046;49.558;8.674;2022-09-09T02:56:31;4.78;;;1.73;;
21769;SDS011;11046;49.558;8.674;2022-09-09T02:59:37;5.95;;;1.58;;
21769;SDS011;11046;49.558;8.674;2022-09-09T03:02:38;9.23;;;1.92;;
21769;SDS011;11046;49.558;8.674;2022-09-09T03:05:41;6.35;;;1.60;;
21769;SDS011;11046;49.558;8.674;2022-09-09T03:08:43;5.00;;;1.85;;
21769;SDS011;11046;49.558;8.674;2022-09-09T03:11:45;7.18;;;2.33;;
21769;SDS011;11046;49.558;8.674;2022-09-09T03:14:48;4.50;;;1.50;;
21769;SDS011;11046;49.558;8.674;2022-09-09T03:17:48;7.32;;;1.58;;
21769;SDS011;11046;49.558;8.674;2022-09-09T03:20:49;6.13;;;1.42;;
21769;SDS011;11046;49.558;8.674;2022-09-09T03:23:52;7.60;;;1.85;;
21769;SDS011;11046;49.558;8.674;2022-09-09T03:26:53;6.20;;;1.30;;
21769;SDS011;11046;49.558;8.674;2022-09-09T03:29:55;4.78;;;1.35;;
21769;SDS011;11046;49.558;8.674;2022-09-09T03:32:58;3.92;;;1.73;;
21769;SDS011;11046;49.558;8.674;2022-09-09T03:36:04;8.98;;;1.80;;
21769;SDS011;11046;49.558;8.674;2022-09-09T03:39:05;2.20;;;1.30;;
21769;SDS011;11046;49.558;8.674;2022-09-09T03:42:07;9.60;;;1.40;;
21769;SDS011;11046;49.558;8.674;2022-09-09T03:45:09;7.32;;;1.25;;
21769;SDS011;11046;49.558;8.674;2022-09-09T03:48:13;5.63;;;1.55;;
21769;SDS011;11046;49.558;8.674;2022-09-09T03:51:15;5.68;;;1.38;;
21769;SDS011;11046;49.558;8.674;2022-09-09T03:54:16;9.30;;;1.70;;
21769;SDS011;11046;49.558;8.674;2022-09-09T03:57:17;4.97;;;1.20;;
21769;SDS011;11046;49.558;8.674;2022-09-09T04:00:18;3.80;;;1.20;;
21769;SDS011;11046;49.558;8.674;2022-09-09T04:03:25;3.35;;;1.17;;
21769;SDS011;11046;49.558;8.674;2022-09-09T04:06:26;1.70;;;1.20;;
21769;SDS011;11046;49.558;8.674;2022-09-09T04:09:27;2.88;;;1.10;;
21769;SDS011;11046;49.558;8.674;2022-09-09T04:12:28;5.63;;;1.40;;
21769;SDS011;11046;49.558;8.674;2022-09-09T04:15:29;1.77;;;1.00;;
21769;SDS011;11046;49.558;8.674;2022-09-09T04:18:31;3.50;;;1.05;;
21769;SDS011;11046;49.558;8.674;2022-09-09T04:21:33;3.30;;;0.98;;
21769;SDS011;11046;49.558;8.674;2022-09-09T04:24:35;6.00;;;1.30;;
21769;SDS011;11046;49.558;8.674;2022-09-09T04:27:36;3.47;;;1.25;;
21769;SDS011;11046;49.558;8.674;2022-09-09T04:30:37;2.78;;;1.25;;
21769;SDS011;11046;49.558;8.674;2022-09-09T04:33:40;3.22;;;1.30;;
21769;SDS011;11046;49.558;8.674;2022-09-09T04:36:42;3.70;;;1.10;;
21769;SDS011;11046;49.558;8.674;2022-09-09T04:39:43;3.47;;;1.20;;
21769;SDS011;11046;49.558;8.674;2022-09-09T04:42:46;2.63;;;1.00;;
21769;SDS011;11046;49.558;8.674;2022-09-09T04:45:48;1.33;;;0.82;;
21769;SDS011;11046;49.558;8.674;2022-09-09T04:48:51;2.58;;;1.00;;
21769;SDS011;11046;49.558;8.674;2022-09-09T04:51:53;3.58;;;1.20;;
21769;SDS011;11046;49.558;8.674;2022-09-09T04:54:54;4.10;;;0.90;;
21769;SDS011;11046;49.558;8.674;2022-09-09T04:57:55;4.70;;;1.63;;
21769;SDS011;11046;49.558;8.674;2022-09-09T05:04:11;2.00;;;1.10;;
21769;SDS011;11046;49.558;8.674;2022-09-09T05:07:11;5.88;;;1.20;;
21769;SDS011;11046;49.558;8.674;2022-09-09T05:10:17;2.17;;;1.48;;
21769;SDS011;11046;49.558;8.674;2022-09-09T05:13:23;4.18;;;1.15;;
21769;SDS011;11046;49.558;8.674;2022-09-09T05:16:25;1.75;;;0.88;;
21769;SDS011;11046;49.558;8.674;2022-09-09T05:19:26;2.50;;;1.05;;
21769;SDS011;11046;49.558;8.674;2022-09-09T05:22:28;2.05;;;1.10;;
21769;SDS011;11046;49.558;8.674;2022-09-09T05:25:30;3.55;;;1.20;;
21769;SDS011;11046;49.558;8.674;2022-09-09T05:28:33;4.28;;;1.15;;
21769;SDS011;11046;49.558;8.674;2022-09-09T05:31:34;4.38;;;1.30;;
21769;SDS011;11046;49.558;8.674;2022-09-09T05:34:40;3.75;;;1.30;;
21769;SDS011;11046;49.558;8.674;2022-09-09T05:37:41;3.67;;;1.20;;
21769;SDS011;11046;49.558;8.674;2022-09-09T05:40:47;3.15;;;1.00;;
21769;SDS011;11046;49.558;8.674;2022-09-09T05:43:48;5.15;;;1.13;;
21769;SDS011;11046;49.558;8.674;2022-09-09T05:46:49;1.83;;;1.02;;
21769;SDS011;11046;49.558;8.674;2022-09-09T05:49:50;2.58;;;0.98;;
21769;SDS011;11046;49.558;8.674;2022-09-09T05:52:54;5.70;;;1.13;;
21769;SDS011;11046;49.558;8.674;2022-09-09T05:56:04;2.72;;;1.10;;
21769;SDS011;11046;49.558;8.674;2022-09-09T05:59:11;5.13;;;1.20;;
21769;SDS011;11046;49.558;8.674;2022-09-09T06:02:13;5.68;;;1.20;;
21769;SDS011;11046;49.558;8.674;2022-09-09T06:05:14;1.92;;;0.90;;
21769;SDS011;11046;49.558;8.674;2022-09-09T06:08:15;4.30;;;1.13;;
21769;SDS011;11046;49.558;8.674;2022-09-09T06:11:18;5.82;;;1.30;;
21769;SDS011;11046;49.558;8.674;2022-09-09T06:14:24;2.15;;;0.90;;
21769;SDS011;11046;49.558;8.674;2022-09-09T06:17:27;3.55;;;1.02;;
21769;SDS011;11046;49.558;8.674;2022-09-09T06:20:28;2.22;;;1.02;;
21769;SDS011;11046;49.558;8.674;2022-09-09T06:23:32;3.85;;;1.10;;
21769;SDS011;11046;49.558;8.674;2022-09-09T06:26:36;3.22;;;1.10;;
21769;SDS011;11046;49.558;8.674;2022-09-09T06:29:39;3.88;;;1.30;;
21769;SDS011;11046;49.558;8.674;2022-09-09T06:32:41;4.32;;;1.20;;
21769;SDS011;11046;49.558;8.674;2022-09-09T06:35:50;3.65;;;1.15;;
21769;SDS011;11046;49.558;8.674;2022-09-09T06:38:54;1.83;;;0.90;;
21769;SDS011;11046;49.558;8.674;2022-09-09T06:41:55;3.42;;;1.30;;
21769;SDS011;11046;49.558;8.674;2022-09-09T06:45:21;3.58;;;1.35;;
21769;SDS011;11046;49.558;8.674;2022-09-09T06:48:28;3.15;;;1.05;;
21769;SDS011;11046;49.558;8.674;2022-09-09T06:51:33;4.82;;;1.20;;
21769;SDS011;11046;49.558;8.674;2022-09-09T06:54:37;3.30;;;1.20;;
21769;SDS011;11046;49.558;8.674;2022-09-09T06:57:38;7.78;;;1.50;;
21769;SDS011;11046;49.558;8.674;2022-09-09T07:00:45;2.45;;;1.10;;
21769;SDS011;11046;49.558;8.674;2022-09-09T07:03:47;2.10;;;1.00;;
21769;SDS011;11046;49.558;8.674;2022-09-09T07:06:50;4.30;;;1.00;;
21769;SDS011;11046;49.558;8.674;2022-09-09T07:10:02;4.32;;;1.00;;
21769;SDS011;11046;49.558;8.674;2022-09-09T07:13:04;8.00;;;1.20;;
21769;SDS011;11046;49.558;8.674;2022-09-09T07:16:16;4.30;;;1.20;;
21769;SDS011;11046;49.558;8.674;2022-09-09T07:19:17;3.65;;;1.08;;
21769;SDS011;11046;49.558;8.674;2022-09-09T07:22:20;3.75;;;1.15;;
21769;SDS011;11046;49.558;8.674;2022-09-09T07:25:21;6.28;;;1.30;;
21769;SDS011;11046;49.558;8.674;2022-09-09T07:28:22;1.95;;;1.00;;
21769;SDS011;11046;49.558;8.674;2022-09-09T07:31:24;3.97;;;1.00;;
21769;SDS011;11046;49.558;8.674;2022-09-09T07:34:31;12.82;;;1.00;;
21769;SDS011;11046;49.558;8.674;2022-09-09T07:37:40;4.25;;;1.23;;
21769;SDS011;11046;49.558;8.674;2022-09-09T07:40:53;4.35;;;1.25;;
21769;SDS011;11046;49.558;8.674;2022-09-09T07:44:31;7.53;;;1.45;;
21769;SDS011;11046;49.558;8.674;2022-09-09T07:51:43;2.72;;;1.23;;
21769;SDS011;11046;49.558;8.674;2022-09-09T07:58:23;2.85;;;1.15;;
21769;SDS011;11046;49.558;8.674;2022-09-09T08:01:47;4.45;;;1.27;;
21769;SDS011;11046;49.558;8.674;2022-09-09T08:05:34;7.05;;;1.42;;
21769;SDS011;11046;49.558;8.674;2022-09-09T08:09:22;3.88;;;0.98;;
21769;SDS011;11046;49.558;8.674;2022-09-09T08:12:33;5.85;;;1.73;;
21769;SDS011;11046;49.558;8.674;2022-09-09T08:15:45;3.45;;;1.10;;
21769;SDS011;11046;49.558;8.674;2022-09-09T08:19:00;6.13;;;1.20;;
21769;SDS011;11046;49.558;8.674;2022-09-09T08:22:15;4.95;;;1.25;;
21769;SDS011;11046;49.558;8.674;2022-09-09T08:25:22;5.55;;;1.20;;
21769;SDS011;11046;49.558;8.674;2022-09-09T08:31:55;7.95;;;2.15;;
21769;SDS011;11046;49.558;8.674;2022-09-09T08:35:08;6.88;;;1.27;;
21769;SDS011;11046;49.558;8.674;2022-09-09T08:38:27;5.20;;;1.27;;
21769;SDS011;11046;49.558;8.674;2022-09-09T08:49:08;8.57;;;1.50;;
21769;SDS011;11046;49.558;8.674;2022-09-09T08:56:18;5.60;;;1.45;;
21769;SDS011;11046;49.558;8.674;2022-09-09T08:59:32;5.57;;;1.42;;
21769;SDS011;11046;49.558;8.674;2022-09-09T09:03:00;5.28;;;1.13;;
21769;SDS011;11046;49.558;8.674;2022-09-09T09:06:15;6.40;;;1.48;;
21769;SDS011;11046;49.558;8.674;2022-09-09T09:09:54;6.55;;;1.27;;
21769;SDS011;11046;49.558;8.674;2022-09-09T09:16:35;6.45;;;1.20;;
21769;SDS011;11046;49.558;8.674;2022-09-09T09:20:02;4.20;;;1.13;;
21769;SDS011;11046;49.558;8.674;2022-09-09T09:23:21;5.10;;;1.20;;
21769;SDS011;11046;49.558;8.674;2022-09-09T09:26:59;7.07;;;1.55;;
21769;SDS011;11046;49.558;8.674;2022-09-09T09:30:23;6.90;;;1.23;;
21769;SDS011;11046;49.558;8.674;2022-09-09T09:37:19;8.13;;;1.20;;
21769;SDS011;11046;49.558;8.674;2022-09-09T09:40:33;8.18;;;1.45;;
21769;SDS011;11046;49.558;8.674;2022-09-09T09:43:34;6.65;;;1.60;;
21769;SDS011;11046;49.558;8.674;2022-09-09T09:46:42;3.63;;;1.20;;
21769;SDS011;11046;49.558;8.674;2022-09-09T09:49:57;5.63;;;1.27;;
21769;SDS011;11046;49.558;8.674;2022-09-09T09:53:18;3.95;;;1.33;;
21769;SDS011;11046;49.558;8.674;2022-09-09T09:56:31;4.53;;;1.48;;
21769;SDS011;11046;49.558;8.674;2022-09-09T09:59:35;5.05;;;1.20;;
21769;SDS011;11046;49.558;8.674;2022-09-09T10:02:45;4.47;;;1.23;;
21769;SDS011;11046;49.558;8.674;2022-09-09T10:05:56;9.32;;;1.40;;
21769;SDS011;11046;49.558;8.674;2022-09-09T10:09:01;5.30;;;1.23;;
21769;SDS011;11046;49.558;8.674;2022-09-09T10:12:13;12.10;;;1.55;;
21769;SDS011;11046;49.558;8.674;2022-09-09T10:22:08;9.35;;;2.00;;
21769;SDS011;11046;49.558;8.674;2022-09-09T10:36:48;5.25;;;1.63;;
21769;SDS011;11046;49.558;8.674;2022-09-09T10:40:02;3.95;;;1.27;;
21769;SDS011;11046;49.558;8.674;2022-09-09T10:46:39;4.00;;;1.00;;
21769;SDS011;11046;49.558;8.674;2022-09-09T10:49:53;2.60;;;0.77;;
21769;SDS011;11046;49.558;8.674;2022-09-09T10:53:17;3.42;;;0.88;;
21769;SDS011;11046;49.558;8.674;2022-09-09T10:56:41;4.07;;;0.80;;
21769;SDS011;11046;49.558;8.674;2022-09-09T10:59:47;3.67;;;0.98;;
21769;SDS011;11046;49.558;8.674;2022-09-09T11:02:56;4.95;;;0.90;;
21769;SDS011;11046;49.558;8.674;2022-09-09T11:06:04;5.55;;;1.42;;
21769;SDS011;11046;49.558;8.674;2022-09-09T11:09:14;7.50;;;1.80;;
21769;SDS011;11046;49.558;8.674;2022-09-09T11:12:21;9.13;;;1.25;;
21769;SDS011;11046;49.558;8.674;2022-09-09T11:15:35;6.43;;;1.40;;
21769;SDS011;11046;49.558;8.674;2022-09-09T11:18:42;6.45;;;1.63;;
21769;SDS011;11046;49.558;8.674;2022-09-09T11:21:46;6.82;;;0.98;;
21769;SDS011;11046;49.558;8.674;2022-09-09T11:25:08;6.97;;;1.20;;
21769;SDS011;11046;49.558;8.674;2022-09-09T11:32:03;5.57;;;1.33;;
21769;SDS011;11046;49.558;8.674;2022-09-09T11:38:31;3.75;;;1.00;;
21769;SDS011;11046;49.558;8.674;2022-09-09T11:41:35;4.40;;;1.10;;
21769;SDS011;11046;49.558;8.674;2022-09-09T11:44:37;3.63;;;0.95;;
21769;SDS011;11046;49.558;8.674;2022-09-09T11:47:38;5.65;;;0.90;;
21769;SDS011;11046;49.558;8.674;2022-09-09T11:50:39;2.50;;;0.90;;
21769;SDS011;11046;49.558;8.674;2022-09-09T11:53:48;4.95;;;1.40;;
21769;SDS011;11046;49.558;8.674;2022-09-09T11:56:50;4.68;;;1.20;;
21769;SDS011;11046;49.558;8.674;2022-09-09T11:59:52;7.45;;;1.30;;
21769;SDS011;11046;49.558;8.674;2022-09-09T12:06:48;7.45;;;1.40;;
21769;SDS011;11046;49.558;8.674;2022-09-09T12:13:18;3.95;;;1.10;;
21769;SDS011;11046;49.558;8.674;2022-09-09T12:19:33;6.93;;;1.25;;
21769;SDS011;11046;49.558;8.674;2022-09-09T12:32:23;3.45;;;1.40;;
21769;SDS011;11046;49.558;8.674;2022-09-09T12:35:26;6.88;;;1.10;;
21769;SDS011;11046;49.558;8.674;2022-09-09T12:38:32;4.90;;;1.30;;
21769;SDS011;11046;49.558;8.674;2022-09-09T12:41:36;11.70;;;1.13;;
21769;SDS011;11046;49.558;8.674;2022-09-09T12:44:36;5.13;;;0.90;;
21769;SDS011;11046;49.558;8.674;2022-09-09T12:47:41;4.93;;;1.00;;
21769;SDS011;11046;49.558;8.674;2022-09-09T12:50:53;12.45;;;1.45;;
21769;SDS011;11046;49.558;8.674;2022-09-09T12:53:56;8.40;;;1.20;;
21769;SDS011;11046;49.558;8.674;2022-09-09T12:56:58;4.32;;;1.10;;
21769;SDS011;11046;49.558;8.674;2022-09-09T13:00:15;3.90;;;0.88;;
21769;SDS011;11046;49.558;8.674;2022-09-09T13:03:20;6.05;;;1.30;;
21769;SDS011;11046;49.558;8.674;2022-09-09T13:06:22;4.78;;;0.80;;
21769;SDS011;11046;49.558;8.674;2022-09-09T13:09:24;9.77;;;1.23;;
21769;SDS011;11046;49.558;8.674;2022-09-09T13:12:26;5.38;;;0.85;;
21769;SDS011;11046;49.558;8.674;2022-09-09T13:15:28;4.40;;;0.70;;
21769;SDS011;11046;49.558;8.674;2022-09-09T13:18:36;4.32;;;0.98;;
21769;SDS011;11046;49.558;8.674;2022-09-09T13:21:40;2.55;;;0.95;;
21769;SDS011;11046;49.558;8.674;2022-09-09T13:24:42;6.80;;;1.08;;
21769;SDS011;11046;49.558;8.674;2022-09-09T13:31:03;4.65;;;1.20;;
21769;SDS011;11046;49.558;8.674;2022-09-09T13:34:10;3.38;;;1.10;;
21769;SDS011;11046;49.558;8.674;2022-09-09T13:40:29;2.03;;;1.02;;
21769;SDS011;11046;49.558;8.674;2022-09-09T13:43:35;6.60;;;1.00;;
21769;SDS011;11046;49.558;8.674;2022-09-09T13:46:44;6.55;;;1.33;;
21769;SDS011;11046;49.558;8.674;2022-09-09T13:49:46;3.35;;;1.23;;
21769;SDS011;11046;49.558;8.674;2022-09-09T13:52:47;5.57;;;1.50;;
21769;SDS011;11046;49.558;8.674;2022-09-09T13:55:51;8.85;;;1.52;;
21769;SDS011;11046;49.558;8.674;2022-09-09T13:58:52;5.03;;;1.08;;
21769;SDS011;11046;49.558;8.674;2022-09-09T14:01:54;5.00;;;1.33;;
21769;SDS011;11046;49.558;8.674;2022-09-09T14:04:57;5.57;;;1.10;;
21769;SDS011;11046;49.558;8.674;2022-09-09T14:07:57;6.70;;;1.20;;
21769;SDS011;11046;49.558;8.674;2022-09-09T14:10:58;2.13;;;0.82;;
21769;SDS011;11046;49.558;8.674;2022-09-09T14:13:59;4.28;;;0.80;;
21769;SDS011;11046;49.558;8.674;2022-09-09T14:17:00;2.15;;;0.93;;
21769;SDS011;11046;49.558;8.674;2022-09-09T14:20:03;4.68;;;1.85;;
21769;SDS011;11046;49.558;8.674;2022-09-09T14:23:09;3.75;;;0.90;;
21769;SDS011;11046;49.558;8.674;2022-09-09T14:26:11;4.25;;;1.05;;
21769;SDS011;11046;49.558;8.674;2022-09-09T14:29:13;3.92;;;1.00;;
21769;SDS011;11046;49.558;8.674;2022-09-09T14:32:14;4.20;;;1.05;;
21769;SDS011;11046;49.558;8.674;2022-09-09T14:35:14;2.30;;;0.75;;
21769;SDS011;11046;49.558;8.674;2022-09-09T14:38:17;1.95;;;0.90;;
21769;SDS011;11046;49.558;8.674;2022-09-09T14:41:18;2.58;;;0.93;;
21769;SDS011;11046;49.558;8.674;2022-09-09T14:44:22;5.07;;;0.90;;
21769;SDS011;11046;49.558;8.674;2022-09-09T14:47:23;1.50;;;0.60;;
21769;SDS011;11046;49.558;8.674;2022-09-09T14:50:23;2.17;;;0.77;;
21769;SDS011;11046;49.558;8.674;2022-09-09T14:53:24;5.80;;;1.38;;
21769;SDS011;11046;49.558;8.674;2022-09-09T14:56:26;5.80;;;0.77;;
21769;SDS011;11046;49.558;8.674;2022-09-09T14:59:31;1.38;;;0.52;;
21769;SDS011;11046;49.558;8.674;2022-09-09T15:02:32;2.90;;;1.13;;
21769;SDS011;11046;49.558;8.674;2022-09-09T15:05:33;2.15;;;0.50;;
21769;SDS011;11046;49.558;8.674;2022-09-09T15:08:34;3.90;;;1.10;;
21769;SDS011;11046;49.558;8.674;2022-09-09T15:11:36;6.72;;;0.82;;
21769;SDS011;11046;49.558;8.674;2022-09-09T15:14:37;2.33;;;0.80;;
21769;SDS011;11046;49.558;8.674;2022-09-09T15:17:38;3.30;;;1.00;;
21769;SDS011;11046;49.558;8.674;2022-09-09T15:20:39;5.65;;;0.80;;
21769;SDS011;11046;49.558;8.674;2022-09-09T15:23:44;3.47;;;0.93;;
21769;SDS011;11046;49.558;8.674;2022-09-09T15:26:46;2.42;;;1.05;;
21769;SDS011;11046;49.558;8.674;2022-09-09T15:29:46;4.82;;;0.93;;
21769;SDS011;11046;49.558;8.674;2022-09-09T15:32:47;7.07;;;1.33;;
21769;SDS011;11046;49.558;8.674;2022-09-09T15:35:48;6.03;;;1.13;;
21769;SDS011;11046;49.558;8.674;2022-09-09T15:38:50;4.68;;;1.10;;
21769;SDS011;11046;49.558;8.674;2022-09-09T15:41:51;3.92;;;0.90;;
21769;SDS011;11046;49.558;8.674;2022-09-09T15:44:52;2.70;;;0.88;;
21769;SDS011;11046;49.558;8.674;2022-09-09T15:47:52;5.60;;;0.80;;
21769;SDS011;11046;49.558;8.674;2022-09-09T15:51:03;1.70;;;0.95;;
21769;SDS011;11046;49.558;8.674;2022-09-09T15:54:04;1.83;;;0.85;;
21769;SDS011;11046;49.558;8.674;2022-09-09T15:57:06;4.07;;;0.90;;
21769;SDS011;11046;49.558;8.674;2022-09-09T16:00:11;3.58;;;1.00;;
21769;SDS011;11046;49.558;8.674;2022-09-09T16:03:13;4.15;;;1.02;;
21769;SDS011;11046;49.558;8.674;2022-09-09T16:06:16;1.90;;;0.90;;
21769;SDS011;11046;49.558;8.674;2022-09-09T16:09:18;5.13;;;0.73;;
21769;SDS011;11046;49.558;8.674;2022-09-09T16:12:19;0.80;;;0.70;;
21769;SDS011;11046;49.558;8.674;2022-09-09T16:15:20;3.30;;;0.65;;
21769;SDS011;11046;49.558;8.674;2022-09-09T16:18:22;1.73;;;0.65;;
21769;SDS011;11046;49.558;8.674;2022-09-09T16:21:30;3.10;;;0.68;;
21769;SDS011;11046;49.558;8.674;2022-09-09T16:24:32;2.55;;;0.80;;
21769;SDS011;11046;49.558;8.674;2022-09-09T16:27:33;2.30;;;0.75;;
21769;SDS011;11046;49.558;8.674;2022-09-09T16:30:34;3.55;;;0.60;;
21769;SDS011;11046;49.558;8.674;2022-09-09T16:33:37;1.90;;;0.57;;
21769;SDS011;11046;49.558;8.674;2022-09-09T16:36:38;1.98;;;0.50;;
21769;SDS011;11046;49.558;8.674;2022-09-09T16:39:40;3.70;;;0.52;;
21769;SDS011;11046;49.558;8.674;2022-09-09T16:42:41;0.63;;;0.50;;
21769;SDS011;11046;49.558;8.674;2022-09-09T16:45:44;0.90;;;0.52;;
21769;SDS011;11046;49.558;8.674;2022-09-09T16:48:46;0.75;;;0.40;;
21769;SDS011;11046;49.558;8.674;2022-09-09T16:51:48;1.30;;;0.47;;
21769;SDS011;11046;49.558;8.674;2022-09-09T16:54:53;3.88;;;0.80;;
21769;SDS011;11046;49.558;8.674;2022-09-09T16:57:53;0.98;;;0.50;;
21769;SDS011;11046;49.558;8.674;2022-09-09T17:00:57;0.82;;;0.43;;
21769;SDS011;11046;49.558;8.674;2022-09-09T17:03:59;1.30;;;0.52;;
21769;SDS011;11046;49.558;8.674;2022-09-09T17:07:01;1.42;;;0.60;;
21769;SDS011;11046;49.558;8.674;2022-09-09T17:10:03;6.28;;;0.50;;
21769;SDS011;11046;49.558;8.674;2022-09-09T17:13:06;2.15;;;0.60;;
21769;SDS011;11046;49.558;8.674;2022-09-09T17:16:07;1.38;;;0.60;;
21769;SDS011;11046;49.558;8.674;2022-09-09T17:19:10;0.73;;;0.40;;
21769;SDS011;11046;49.558;8.674;2022-09-09T17:22:12;1.40;;;0.60;;
21769;SDS011;11046;49.558;8.674;2022-09-09T17:25:13;1.60;;;0.60;;
21769;SDS011;11046;49.558;8.674;2022-09-09T17:28:17;2.42;;;0.52;;
21769;SDS011;11046;49.558;8.674;2022-09-09T17:31:24;2.30;;;0.70;;
21769;SDS011;11046;49.558;8.674;2022-09-09T17:34:26;3.00;;;0.55;;
21769;SDS011;11046;49.558;8.674;2022-09-09T17:37:28;3.72;;;0.68;;
21769;SDS011;11046;49.558;8.674;2022-09-09T17:40:29;1.05;;;0.70;;
21769;SDS011;11046;49.558;8.674;2022-09-09T17:43:31;4.15;;;0.80;;
21769;SDS011;11046;49.558;8.674;2022-09-09T17:46:36;2.63;;;0.73;;
21769;SDS011;11046;49.558;8.674;2022-09-09T17:49:40;2.90;;;1.10;;
21769;SDS011;11046;49.558;8.674;2022-09-09T17:52:47;4.00;;;0.90;;
21769;SDS011;11046;49.558;8.674;2022-09-09T17:56:05;7.10;;;0.90;;
21769;SDS011;11046;49.558;8.674;2022-09-09T17:59:13;8.70;;;1.00;;
21769;SDS011;11046;49.558;8.674;2022-09-09T18:02:37;5.28;;;1.30;;
21769;SDS011;11046;49.558;8.674;2022-09-09T18:05:45;4.95;;;1.50;;
21769;SDS011;11046;49.558;8.674;2022-09-09T18:08:55;5.60;;;1.60;;
21769;SDS011;11046;49.558;8.674;2022-09-09T18:12:14;14.50;;;2.10;;
21769;SDS011;11046;49.558;8.674;2022-09-09T18:15:26;5.75;;;2.20;;
21769;SDS011;11046;49.558;8.674;2022-09-09T18:18:28;9.48;;;2.35;;
21769;SDS011;11046;49.558;8.674;2022-09-09T18:21:35;6.53;;;2.03;;
21769;SDS011;11046;49.558;8.674;2022-09-09T18:24:36;3.92;;;1.67;;
21769;SDS011;11046;49.558;8.674;2022-09-09T18:27:43;3.67;;;1.50;;
21769;SDS011;11046;49.558;8.674;2022-09-09T18:30:44;3.63;;;1.45;;
21769;SDS011;11046;49.558;8.674;2022-09-09T18:33:45;3.83;;;1.40;;
21769;SDS011;11046;49.558;8.674;2022-09-09T18:36:49;3.63;;;1.90;;
21769;SDS011;11046;49.558;8.674;2022-09-09T18:39:54;3.08;;;1.60;;
21769;SDS011;11046;49.558;8.674;2022-09-09T18:42:55;7.68;;;1.70;;
21769;SDS011;11046;49.558;8.674;2022-09-09T18:46:02;4.70;;;1.75;;
21769;SDS011;11046;49.558;8.674;2022-09-09T18:49:04;3.97;;;1.33;;
21769;SDS011;11046;49.558;8.674;2022-09-09T18:52:07;5.43;;;1.60;;
21769;SDS011;11046;49.558;8.674;2022-09-09T18:55:15;7.00;;;1.52;;
21769;SDS011;11046;49.558;8.674;2022-09-09T18:58:16;6.50;;;1.65;;
21769;SDS011;11046;49.558;8.674;2022-09-09T19:01:16;4.60;;;1.50;;
21769;SDS011;11046;49.558;8.674;2022-09-09T19:04:18;5.72;;;1.20;;
21769;SDS011;11046;49.558;8.674;2022-09-09T19:07:21;6.30;;;1.50;;
21769;SDS011;11046;49.558;8.674;2022-09-09T19:10:22;4.18;;;1.17;;
21769;SDS011;11046;49.558;8.674;2022-09-09T19:13:22;3.13;;;1.02;;
21769;SDS011;11046;49.558;8.674;2022-09-09T19:16:24;3.50;;;0.82;;
21769;SDS011;11046;49.558;8.674;2022-09-09T19:19:30;7.38;;;0.90;;
21769;SDS011;11046;49.558;8.674;2022-09-09T19:22:32;4.57;;;0.85;;
21769;SDS011;11046;49.558;8.674;2022-09-09T19:25:36;2.78;;;0.95;;
21769;SDS011;11046;49.558;8.674;2022-09-09T19:28:37;2.80;;;0.90;;
21769;SDS011;11046;49.558;8.674;2022-09-09T19:31:39;6.72;;;0.80;;
21769;SDS011;11046;49.558;8.674;2022-09-09T19:34:40;0.75;;;0.50;;
21769;SDS011;11046;49.558;8.674;2022-09-09T19:37:43;2.20;;;0.80;;
21769;SDS011;11046;49.558;8.674;2022-09-09T19:40:44;3.10;;;0.80;;
21769;SDS011;11046;49.558;8.674;2022-09-09T19:43:44;1.83;;;0.75;;
21769;SDS011;11046;49.558;8.674;2022-09-09T19:46:46;5.25;;;0.52;;
21769;SDS011;11046;49.558;8.674;2022-09-09T19:49:46;1.67;;;0.82;;
21769;SDS011;11046;49.558;8.674;2022-09-09T19:52:47;2.22;;;0.80;;
21769;SDS011;11046;49.558;8.674;2022-09-09T19:55:48;3.78;;;0.90;;
21769;SDS011;11046;49.558;8.674;2022-09-09T19:58:52;3.33;;;0.60;;
21769;SDS011;11046;49.558;8.674;2022-09-09T20:01:53;5.25;;;0.65;;
21769;SDS011;11046;49.558;8.674;2022-09-09T20:04:55;6.05;;;1.20;;
21769;SDS011;11046;49.558;8.674;2022-09-09T20:07:56;1.98;;;1.50;;
21769;SDS011;11046;49.558;8.674;2022-09-09T20:10:57;1.70;;;0.65;;
21769;SDS011;11046;49.558;8.674;2022-09-09T20:14:00;1.52;;;0.70;;
21769;SDS011;11046;49.558;8.674;2022-09-09T20:17:01;4.43;;;0.88;;
21769;SDS011;11046;49.558;8.674;2022-09-09T20:20:02;3.30;;;0.70;;
21769;SDS011;11046;49.558;8.674;2022-09-09T20:23:03;4.35;;;0.90;;
21769;SDS011;11046;49.558;8.674;2022-09-09T20:26:05;2.40;;;0.80;;
21769;SDS011;11046;49.558;8.674;2022-09-09T20:29:08;3.97;;;1.00;;
21769;SDS011;11046;49.558;8.674;2022-09-09T20:32:11;2.65;;;1.10;;
21769;SDS011;11046;49.558;8.674;2022-09-09T20:35:12;4.15;;;1.00;;
21769;SDS011;11046;49.558;8.674;2022-09-09T20:38:14;1.30;;;0.82;;
21769;SDS011;11046;49.558;8.674;2022-09-09T20:41:15;2.85;;;0.85;;
21769;SDS011;11046;49.558;8.674;2022-09-09T20:44:18;5.03;;;0.90;;
21769;SDS011;11046;49.558;8.674;2022-09-09T20:47:23;2.47;;;1.10;;
21769;SDS011;11046;49.558;8.674;2022-09-09T20:50:23;1.95;;;0.95;;
21769;SDS011;11046;49.558;8.674;2022-09-09T20:53:24;4.72;;;1.10;;
21769;SDS011;11046;49.558;8.674;2022-09-09T20:56:26;3.05;;;1.27;;